Portada
METAR-TAF:

METAR-TAF

Aeroports :

Cairns, Austràlia

latitud: 16-53S, longitud: 145-45E, altitud: 3 m

Observació

L'informe es va fer fa 36 minuts, a les 03:00 UTC
Vent 13 kt del Sud-Est
Temperatura 25°C
Humitat 41%
Pressió 1016 hPa
Visibilitat 10 km o més
sense núvols per sota de 1500 mi sense presència de cumulonimbus.

METAR: YBCS 180300Z 13013KT CAVOK 25/11 Q1016 NOSIG

Hora: 13:36 (03:36 UTC)

Pronòstic

L'informe es va fer fa 4 hores i 3 minuts, a les 23:33 UTC
Pronòstic vàlid del 18 a les 00 UTC al 18 a les 24 UTC
Vent 14 kt del Sud-Est
Visibilitat 10 km o més
sense núvols per sota de 1500 mi sense presència de cumulonimbus.

TAF: YBCS 172333Z 1800/1824 14014KT CAVOK

Observacions i pronòstics meteorològics de més de 4000 aeroports (METAR i TAF).

Les estacions disponibles són els punts grocs i vermells al mapa.

Posi el ratolí al punt desitjat per veure el nom de l'estació.

Feu clic per veure les observacions i els pronòstics meteorològics.

Per canviar el mapa: feu clic els botons verds amb una creu de color negre per apropar; al botó verd amb un guió per allunyar la imatge; o en les fletxes verdes per a mapes adjacents.


METAR-TAF: